TimeCEST,TemperatureF,Dew PointF,Humidity,Sea Level PressureIn,VisibilityMPH,Wind Direction,Wind SpeedMPH,Gust SpeedMPH,PrecipitationIn,Events,Conditions,WindDirDegrees,DateUTC
12:25 AM,64.4,57.2,77,29.83,6.2,SSE,8.1,-,N/A,,Unknown,160,2012-10-19 22:25:00
12:55 AM,62.6,57.2,82,29.83,6.2,SSE,6.9,-,N/A,,Unknown,160,2012-10-19 22:55:00
1:25 AM,62.6,57.2,82,29.83,6.2,SSE,8.1,-,N/A,,Unknown,160,2012-10-19 23:25:00
1:55 AM,62.6,57.2,82,29.83,6.2,South,6.9,-,N/A,,Unknown,170,2012-10-19 23:55:00
2:00 AM,61,57,83,29.86,17,South,6.7,,,,Partly Cloudy,180,2012-10-20 00:00:00
2:25 AM,60.8,57.2,88,29.86,6.2,South,5.8,-,N/A,,Unknown,180,2012-10-20 00:25:00
2:55 AM,60.8,57.2,88,29.86,6.2,South,4.6,-,N/A,Rain,Light Rain,190,2012-10-20 00:55:00
3:25 AM,60.8,57.2,88,29.86,6.2,SSE,6.9,-,N/A,,Partly Cloudy,160,2012-10-20 01:25:00
3:55 AM,60.8,57.2,88,29.86,6.2,SSE,6.9,-,N/A,,Partly Cloudy,160,2012-10-20 01:55:00
4:25 AM,60.8,57.2,88,29.86,6.2,South,8.1,-,N/A,,Light Drizzle,190,2012-10-20 02:25:00
4:55 AM,60.8,57.2,88,29.86,6.2,South,6.9,-,N/A,Rain,Light Rain,190,2012-10-20 02:55:00
5:00 AM,60,58,90,29.88,13,South,6.7,,,Rain,Light Drizzle,180,2012-10-20 03:00:00
5:25 AM,60.8,59.0,94,29.86,6.2,SSW,6.9,-,N/A,Rain,Light Rain,200,2012-10-20 03:25:00
5:55 AM,60.8,59.0,94,29.86,6.2,South,8.1,-,N/A,,Light Drizzle,190,2012-10-20 03:55:00
6:25 AM,60.8,59.0,94,29.89,6.2,SW,10.4,-,N/A,Rain,Light Rain,220,2012-10-20 04:25:00
6:55 AM,60.8,59.0,94,29.92,6.2,SW,9.2,-,N/A,,Overcast,220,2012-10-20 04:55:00
7:25 AM,60.8,59.0,94,29.92,5.6,WSW,9.2,-,N/A,,Overcast,240,2012-10-20 05:25:00
7:55 AM,59.0,59.0,100,29.92,5.6,SW,9.2,-,N/A,,Overcast,230,2012-10-20 05:55:00
8:00 AM,60,58,92,29.95,6,SW,11.2,,,,Partly Cloudy,230,2012-10-20 06:00:00
8:25 AM,59.0,59.0,100,29.95,5.6,SW,10.4,-,N/A,,Overcast,230,2012-10-20 06:25:00
8:55 AM,59.0,55.4,88,29.95,6.2,SW,13.8,-,N/A,,Overcast,230,2012-10-20 06:55:00
9:25 AM,59.0,57.2,94,29.98,6.2,WSW,11.5,-,N/A,,Overcast,240,2012-10-20 07:25:00
9:55 AM,57.2,57.2,100,30.01,6.2,WSW,10.4,-,N/A,,Overcast,240,2012-10-20 07:55:00
10:25 AM,59.0,57.2,94,30.01,6.2,WSW,6.9,-,N/A,,Overcast,250,2012-10-20 08:25:00
10:55 AM,59.0,55.4,88,30.01,6.2,West,8.1,-,N/A,,Overcast,260,2012-10-20 08:55:00
11:00 AM,59,55,83,30.02,22,WSW,8.9,,,,Overcast,250,2012-10-20 09:00:00
11:25 AM,59.0,55.4,88,30.01,6.2,West,8.1,-,N/A,,Overcast,260,2012-10-20 09:25:00
11:55 AM,59.0,55.4,88,30.04,6.2,WSW,9.2,-,N/A,,Overcast,240,2012-10-20 09:55:00
12:25 PM,57.2,53.6,88,30.04,6.2,West,8.1,-,N/A,,Overcast,260,2012-10-20 10:25:00
12:55 PM,57.2,55.4,94,30.04,6.2,WSW,6.9,-,N/A,,Overcast,240,2012-10-20 10:55:00
1:25 PM,57.2,55.4,94,30.06,6.2,WSW,4.6,-,N/A,,Overcast,240,2012-10-20 11:25:00
1:55 PM,59.0,55.4,88,30.06,6.2,West,3.5,-,N/A,,Overcast,260,2012-10-20 11:55:00
2:00 PM,58,55,87,30.08,22,West,2.2,,,,Partly Cloudy,270,2012-10-20 12:00:00
2:25 PM,59.0,55.4,88,30.06,6.2,West,3.5,-,N/A,,Overcast,280,2012-10-20 12:25:00
2:55 PM,57.2,55.4,94,30.06,6.2,Variable,2.3,-,N/A,,Overcast,0,2012-10-20 12:55:00
3:25 PM,59.0,55.4,88,30.06,6.2,Variable,1.2,-,N/A,,Overcast,0,2012-10-20 13:25:00
3:55 PM,59.0,55.4,88,30.06,6.2,Variable,1.2,-,N/A,,Partly Cloudy,0,2012-10-20 13:55:00
4:25 PM,59.0,55.4,88,30.04,6.2,Variable,1.2,-,N/A,,Unknown,0,2012-10-20 14:25:00
4:55 PM,59.0,55.4,88,30.06,6.2,Variable,1.2,-,N/A,,Unknown,0,2012-10-20 14:55:00
5:00 PM,58,54,83,30.07,19,,2.2,,,Rain,Drizzle,,2012-10-20 15:00:00
5:25 PM,59.0,55.4,88,30.06,6.2,Variable,2.3,-,N/A,,Unknown,0,2012-10-20 15:25:00
5:55 PM,57.2,55.4,94,30.06,6.2,Variable,2.3,-,N/A,,Overcast,0,2012-10-20 15:55:00
6:25 PM,57.2,55.4,94,30.06,6.2,Variable,2.3,-,N/A,,Overcast,0,2012-10-20 16:25:00
6:55 PM,57.2,53.6,88,30.06,6.2,NNE,3.5,-,N/A,,Overcast,20,2012-10-20 16:55:00
7:25 PM,57.2,55.4,94,30.06,6.2,North,4.6,-,N/A,,Overcast,10,2012-10-20 17:25:00
7:55 PM,57.2,55.4,94,30.09,6.2,North,4.6,-,N/A,,Scattered Clouds,10,2012-10-20 17:55:00
8:00 PM,56,54,93,30.09,22,NE,6.7,,,,Partly Cloudy,50,2012-10-20 18:00:00
8:25 PM,57.2,53.6,88,30.06,6.2,NE,4.6,-,N/A,,Unknown,40,2012-10-20 18:25:00
8:55 PM,57.2,53.6,88,30.06,6.2,NNE,3.5,-,N/A,,Unknown,30,2012-10-20 18:55:00
9:25 PM,57.2,53.6,88,30.06,6.2,North,3.5,-,N/A,,Unknown,350,2012-10-20 19:25:00
9:55 PM,55.4,53.6,94,30.06,6.2,NNE,4.6,-,N/A,,Overcast,20,2012-10-20 19:55:00
10:25 PM,55.4,55.4,100,30.06,6.2,NE,4.6,-,N/A,,Mostly Cloudy,40,2012-10-20 20:25:00
10:55 PM,55.4,55.4,100,30.06,6.2,ENE,5.8,-,N/A,,Mostly Cloudy,60,2012-10-20 20:55:00
11:00 PM,56,55,94,30.08,9,NE,6.7,,,Rain,Rain,40,2012-10-20 21:00:00
11:25 PM,55.4,55.4,100,30.04,6.2,NE,8.1,-,N/A,,Overcast,50,2012-10-20 21:25:00
11:55 PM,55.4,55.4,100,30.04,6.2,ENE,8.1,-,N/A,,Overcast,60,2012-10-20 21:55:00